Time,TemperatureF,DewpointF,PressureIn,WindDirection,WindDirectionDegrees,WindSpeedMPH,WindSpeedGustMPH,Humidity,HourlyPrecipIn,Conditions,Clouds,dailyrainin,SoftwareType,DateUTC
2013-05-15 00:00:00,38.3,31.9,29.99,SE,145,4.5,7.7,77,0.00,,,0.00,VWS V14.00,2013-05-15 04:00:00,
2013-05-15 00:01:00,37.2,31.9,29.99,SSE,162,6.0,8.2,81,0.00,,,0.00,VWS V14.00,2013-05-15 04:01:00,
2013-05-15 00:03:00,38.2,31.8,30.00,SE,146,5.0,7.7,78,0.00,,,0.00,VWS V14.00,2013-05-15 04:03:00,
2013-05-15 00:04:00,37.1,31.9,29.99,SSE,165,6.5,8.5,81,0.00,,,0.00,VWS V14.00,2013-05-15 04:04:00,
2013-05-15 00:06:00,38.2,31.9,29.99,SSE,149,5.0,5.7,78,0.00,,,0.00,VWS V14.00,2013-05-15 04:06:00,
2013-05-15 00:07:00,37.1,32.0,29.99,SSE,160,5.4,8.5,82,0.00,,,0.00,VWS V14.00,2013-05-15 04:07:00,
2013-05-15 00:09:00,38.2,31.9,30.00,SSE,163,6.0,7.5,78,0.00,,,0.00,VWS V14.00,2013-05-15 04:09:00,
2013-05-15 00:10:00,37.0,32.0,29.99,South,172,5.0,8.5,82,0.00,,,0.00,VWS V14.00,2013-05-15 04:10:00,
2013-05-15 00:13:00,36.9,32.0,29.99,SSE,153,4.9,8.5,82,0.00,,,0.00,VWS V14.00,2013-05-15 04:13:00,
2013-05-15 00:15:00,37.9,31.6,30.00,South,174,6.0,10.4,78,0.00,,,0.00,VWS V14.00,2013-05-15 04:15:00,
2013-05-15 00:16:00,36.9,32.1,29.98,SSE,156,4.7,8.5,83,0.00,,,0.00,VWS V14.00,2013-05-15 04:16:00,
2013-05-15 00:18:00,37.8,31.5,30.00,SSE,160,6.4,8.5,78,0.00,,,0.00,VWS V14.00,2013-05-15 04:18:00,
2013-05-15 00:19:00,37.0,32.3,29.98,SSE,159,4.8,8.5,83,0.00,,,0.00,VWS V14.00,2013-05-15 04:19:00,
2013-05-15 00:22:00,36.9,32.3,29.98,SSE,150,4.5,8.5,83,0.00,,,0.00,VWS V14.00,2013-05-15 04:22:00,
2013-05-15 00:24:00,37.5,31.5,29.99,SSE,156,5.5,8.5,79,0.00,,,0.00,VWS V14.00,2013-05-15 04:24:00,
2013-05-15 00:25:00,36.9,32.2,29.98,SSE,152,5.2,8.5,83,0.00,,,0.00,VWS V14.00,2013-05-15 04:25:00,
2013-05-15 00:28:00,36.7,31.9,29.98,SSE,155,6.2,8.5,83,0.00,,,0.00,VWS V14.00,2013-05-15 04:28:00,
2013-05-15 00:30:00,37.4,31.3,29.99,South,172,6.3,8.2,78,0.00,,,0.00,VWS V14.00,2013-05-15 04:30:00,
2013-05-15 00:31:00,36.7,31.9,29.98,SSE,165,7.3,8.5,82,0.00,,,0.00,VWS V14.00,2013-05-15 04:31:00,
2013-05-15 00:34:00,36.6,31.8,29.98,SSE,158,5.8,9.3,82,0.00,,,0.00,VWS V14.00,2013-05-15 04:34:00,
2013-05-15 00:36:00,37.4,31.6,29.99,SSE,160,6.5,8.4,79,0.00,,,0.00,VWS V14.00,2013-05-15 04:36:00,
2013-05-15 00:37:00,36.5,31.8,29.98,SSE,167,5.8,9.3,83,0.00,,,0.00,VWS V14.00,2013-05-15 04:37:00,
2013-05-15 00:40:00,36.5,31.9,29.98,South,173,7.0,9.3,83,0.00,,,0.00,VWS V14.00,2013-05-15 04:40:00,
2013-05-15 00:42:00,37.4,31.6,29.99,SE,128,4.6,8.8,80,0.00,,,0.00,VWS V14.00,2013-05-15 04:42:00,
2013-05-15 00:43:00,36.3,31.6,29.98,SE,143,6.2,9.3,83,0.00,,,0.00,VWS V14.00,2013-05-15 04:43:00,
2013-05-15 00:46:00,36.3,31.6,29.98,SSE,166,5.6,9.3,83,0.00,,,0.00,VWS V14.00,2013-05-15 04:46:00,
2013-05-15 00:48:00,37.2,31.6,29.99,SSE,165,5.3,7.0,80,0.00,,,0.00,VWS V14.00,2013-05-15 04:48:00,
2013-05-15 00:49:00,36.4,31.8,29.97,SE,142,5.2,9.3,83,0.00,,,0.00,VWS V14.00,2013-05-15 04:49:00,
2013-05-15 00:52:00,36.2,31.6,29.98,SSE,163,5.7,9.3,83,0.00,,,0.00,VWS V14.00,2013-05-15 04:52:00,
2013-05-15 00:54:00,37.2,31.8,29.99,SSE,166,5.2,7.1,80,0.00,,,0.00,VWS V14.00,2013-05-15 04:54:00,
2013-05-15 00:55:00,36.2,31.7,29.98,SSE,158,6.3,9.3,83,0.00,,,0.00,VWS V14.00,2013-05-15 04:55:00,
2013-05-15 00:58:00,36.1,31.6,29.98,SSE,155,5.9,9.3,84,0.00,,,0.00,VWS V14.00,2013-05-15 04:58:00,
2013-05-15 01:01:00,36.1,31.8,29.98,SSE,160,5.1,9.3,84,0.00,,,0.00,VWS V14.00,2013-05-15 05:01:00,
2013-05-15 01:04:00,36.1,31.8,29.97,South,174,3.5,9.3,84,0.00,,,0.00,VWS V14.00,2013-05-15 05:04:00,
2013-05-15 01:07:00,36.1,31.8,29.97,South,180,4.6,9.3,84,0.00,,,0.00,VWS V14.00,2013-05-15 05:07:00,
2013-05-15 01:10:00,36.2,31.9,29.97,SSE,152,4.3,9.3,84,0.00,,,0.00,VWS V14.00,2013-05-15 05:10:00,
2013-05-15 01:13:00,36.2,32.0,29.97,SSE,156,5.2,9.3,85,0.00,,,0.00,VWS V14.00,2013-05-15 05:13:00,
2013-05-15 01:16:00,36.2,32.1,29.97,SSE,152,5.7,9.3,85,0.00,,,0.00,VWS V14.00,2013-05-15 05:16:00,
2013-05-15 01:19:00,36.4,32.3,29.97,SSE,156,4.5,9.3,85,0.00,,,0.00,VWS V14.00,2013-05-15 05:19:00,
2013-05-15 01:22:00,36.4,32.3,29.97,SSE,158,4.7,9.3,85,0.00,,,0.00,VWS V14.00,2013-05-15 05:22:00,
2013-05-15 01:25:00,36.5,32.3,29.97,SSE,152,6.4,9.3,85,0.00,,,0.00,VWS V14.00,2013-05-15 05:25:00,
2013-05-15 01:28:00,36.4,32.2,29.97,SSE,153,5.2,9.3,85,0.00,,,0.00,VWS V14.00,2013-05-15 05:28:00,
2013-05-15 01:31:00,36.4,32.2,29.97,SSE,158,5.1,9.3,85,0.00,,,0.00,VWS V14.00,2013-05-15 05:31:00,
2013-05-15 01:35:00,36.4,32.3,29.97,SSE,166,5.7,9.3,85,0.00,,,0.00,VWS V14.00,2013-05-15 05:35:00,
2013-05-15 01:38:00,36.3,32.3,29.97,SSE,160,4.4,9.3,85,0.00,,,0.00,VWS V14.00,2013-05-15 05:38:00,
2013-05-15 01:41:00,36.2,32.2,29.97,SSE,162,4.4,9.3,85,0.00,,,0.00,VWS V14.00,2013-05-15 05:41:00,
2013-05-15 01:44:00,36.2,32.2,29.97,SSE,160,5.0,9.3,85,0.00,,,0.00,VWS V14.00,2013-05-15 05:44:00,
2013-05-15 01:47:00,36.1,32.1,29.97,SE,142,5.0,9.3,85,0.00,,,0.00,VWS V14.00,2013-05-15 05:47:00,
2013-05-15 01:50:00,36.1,32.2,29.97,SSE,156,4.5,9.3,86,0.00,,,0.00,VWS V14.00,2013-05-15 05:50:00,
2013-05-15 01:53:00,35.9,32.0,29.97,SSE,156,6.1,9.3,86,0.00,,,0.00,VWS V14.00,2013-05-15 05:53:00,
2013-05-15 01:56:00,35.8,32.0,29.97,South,177,5.2,9.3,86,0.00,,,0.00,VWS V14.00,2013-05-15 05:56:00,
2013-05-15 01:59:00,35.9,32.2,29.97,SE,146,5.5,9.3,86,0.00,,,0.00,VWS V14.00,2013-05-15 05:59:00,
2013-05-15 02:02:00,35.8,32.2,29.97,SSE,160,5.5,9.3,86,0.00,,,0.00,VWS V14.00,2013-05-15 06:02:00,
2013-05-15 02:05:00,35.8,32.2,29.97,SSE,153,4.5,9.3,86,0.00,,,0.00,VWS V14.00,2013-05-15 06:05:00,
2013-05-15 02:08:00,35.9,32.3,29.97,SSE,150,4.7,9.3,86,0.00,,,0.00,VWS V14.00,2013-05-15 06:08:00,
2013-05-15 02:11:00,36.0,32.4,29.97,SSE,148,6.1,9.3,86,0.00,,,0.00,VWS V14.00,2013-05-15 06:11:00,
2013-05-15 02:14:00,36.1,32.4,29.97,SSE,155,4.7,9.3,86,0.00,,,0.00,VWS V14.00,2013-05-15 06:14:00,
2013-05-15 02:17:00,36.0,32.3,29.97,SSE,155,5.0,9.3,86,0.00,,,0.00,VWS V14.00,2013-05-15 06:17:00,
2013-05-15 02:20:00,36.0,32.3,29.97,SSE,152,7.0,9.3,86,0.00,,,0.00,VWS V14.00,2013-05-15 06:20:00,
2013-05-15 02:23:00,36.0,32.2,29.96,South,169,6.2,9.3,86,0.00,,,0.00,VWS V14.00,2013-05-15 06:23:00,
2013-05-15 02:26:00,36.0,32.3,29.97,South,176,5.8,9.3,86,0.00,,,0.00,VWS V14.00,2013-05-15 06:26:00,
2013-05-15 02:29:00,35.9,32.3,29.97,SSE,152,4.9,9.3,86,0.00,,,0.00,VWS V14.00,2013-05-15 06:29:00,
2013-05-15 02:32:00,35.8,32.2,29.97,SSE,150,5.5,9.3,87,0.00,,,0.00,VWS V14.00,2013-05-15 06:32:00,
2013-05-15 02:35:00,35.7,32.1,29.96,SE,145,5.3,9.3,87,0.00,,,0.00,VWS V14.00,2013-05-15 06:35:00,
2013-05-15 02:38:00,35.6,32.0,29.97,SSE,158,5.0,9.3,87,0.00,,,0.00,VWS V14.00,2013-05-15 06:38:00,
2013-05-15 02:41:00,35.5,31.9,29.96,SSE,160,5.6,9.5,87,0.00,,,0.00,VWS V14.00,2013-05-15 06:41:00,
2013-05-15 02:44:00,35.4,31.8,29.96,SSE,165,7.0,9.5,87,0.00,,,0.00,VWS V14.00,2013-05-15 06:44:00,
2013-05-15 02:47:00,35.4,31.8,29.96,SSE,159,6.5,9.5,86,0.00,,,0.00,VWS V14.00,2013-05-15 06:47:00,
2013-05-15 02:50:00,35.3,31.7,29.96,SSE,160,6.3,9.5,86,0.00,,,0.00,VWS V14.00,2013-05-15 06:50:00,
2013-05-15 02:53:00,35.3,31.6,29.96,South,172,6.3,9.5,86,0.00,,,0.00,VWS V14.00,2013-05-15 06:53:00,
2013-05-15 02:56:00,35.2,31.6,29.96,SSE,162,6.3,9.9,86,0.00,,,0.00,VWS V14.00,2013-05-15 06:56:00,
2013-05-15 02:59:00,35.3,31.6,29.96,South,172,6.8,9.9,86,0.00,,,0.00,VWS V14.00,2013-05-15 06:59:00,
2013-05-15 03:02:00,35.3,31.6,29.96,South,170,5.5,10.0,86,0.00,,,0.00,VWS V14.00,2013-05-15 07:02:00,
2013-05-15 03:05:00,35.4,31.6,29.96,SSE,158,5.8,10.0,86,0.00,,,0.00,VWS V14.00,2013-05-15 07:05:00,
2013-05-15 03:08:00,35.3,31.6,29.96,SSE,163,5.6,10.0,86,0.00,,,0.00,VWS V14.00,2013-05-15 07:08:00,
2013-05-15 03:11:00,35.3,31.8,29.96,SSE,159,5.6,10.0,87,0.00,,,0.00,VWS V14.00,2013-05-15 07:11:00,
2013-05-15 03:14:00,35.3,31.9,29.96,SE,141,4.8,10.0,87,0.00,,,0.00,VWS V14.00,2013-05-15 07:14:00,
2013-05-15 03:17:00,35.4,32.0,29.96,SSE,149,4.5,10.0,87,0.00,,,0.00,VWS V14.00,2013-05-15 07:17:00,
2013-05-15 03:20:00,35.3,31.9,29.96,SSE,156,4.7,10.0,87,0.00,,,0.00,VWS V14.00,2013-05-15 07:20:00,
2013-05-15 03:23:00,35.3,32.0,29.96,SSE,156,5.6,10.0,88,0.00,,,0.00,VWS V14.00,2013-05-15 07:23:00,
2013-05-15 03:26:00,35.3,31.9,29.96,SSE,159,5.3,10.0,87,0.00,,,0.00,VWS V14.00,2013-05-15 07:26:00,
2013-05-15 03:29:00,35.3,31.9,29.96,SSE,158,4.6,10.0,87,0.00,,,0.00,VWS V14.00,2013-05-15 07:29:00,
2013-05-15 03:32:00,35.5,32.1,29.96,SSE,153,3.4,10.0,87,0.00,,,0.00,VWS V14.00,2013-05-15 07:32:00,
2013-05-15 03:35:00,35.5,32.1,29.96,SSE,167,5.5,10.0,87,0.00,,,0.00,VWS V14.00,2013-05-15 07:35:00,
2013-05-15 03:38:00,35.4,32.0,29.96,SSE,156,3.2,10.0,87,0.00,,,0.00,VWS V14.00,2013-05-15 07:38:00,
2013-05-15 03:41:00,35.5,32.2,29.96,SSE,162,4.6,10.0,88,0.00,,,0.00,VWS V14.00,2013-05-15 07:41:00,
2013-05-15 03:44:00,35.4,32.1,29.96,SE,134,3.4,10.0,88,0.00,,,0.00,VWS V14.00,2013-05-15 07:44:00,
2013-05-15 03:47:00,35.4,32.2,29.97,ESE,121,0.0,10.0,88,0.00,,,0.00,VWS V14.00,2013-05-15 07:47:00,
2013-05-15 03:50:00,35.3,32.0,29.97,ESE,121,0.0,10.0,88,0.00,,,0.00,VWS V14.00,2013-05-15 07:50:00,
2013-05-15 03:53:00,35.4,32.2,29.96,ESE,121,0.0,10.0,88,0.00,,,0.00,VWS V14.00,2013-05-15 07:53:00,
2013-05-15 03:56:00,35.4,32.2,29.96,ESE,121,0.0,10.0,88,0.00,,,0.00,VWS V14.00,2013-05-15 07:56:00,
2013-05-15 03:59:00,35.4,32.1,29.96,ESE,121,0.0,10.0,88,0.00,,,0.00,VWS V14.00,2013-05-15 07:59:00,
2013-05-15 04:02:00,35.4,32.2,29.96,ESE,121,0.0,10.0,88,0.00,,,0.00,VWS V14.00,2013-05-15 08:02:00,
2013-05-15 04:05:00,35.4,32.2,29.97,ESE,121,0.0,10.0,88,0.00,,,0.00,VWS V14.00,2013-05-15 08:05:00,
2013-05-15 04:08:00,35.3,32.1,29.96,ESE,121,0.0,10.0,88,0.00,,,0.00,VWS V14.00,2013-05-15 08:08:00,
2013-05-15 04:14:00,35.5,32.3,29.96,ESE,121,0.0,10.0,88,0.00,,,0.00,VWS V14.00,2013-05-15 08:14:00,
2013-05-15 04:23:00,35.1,32.0,29.97,ESE,121,0.0,10.0,88,0.00,,,0.00,VWS V14.00,2013-05-15 08:23:00,
2013-05-15 04:26:00,35.2,32.2,29.97,ESE,121,0.0,10.0,88,0.00,,,0.00,VWS V14.00,2013-05-15 08:26:00,
2013-05-15 04:29:00,35.1,32.0,29.97,SSE,163,5.6,10.0,88,0.00,,,0.00,VWS V14.00,2013-05-15 08:29:00,
2013-05-15 04:32:00,35.1,32.0,29.97,SSE,152,4.4,10.0,88,0.00,,,0.00,VWS V14.00,2013-05-15 08:32:00,
2013-05-15 04:35:00,35.1,32.0,29.97,SE,146,3.3,10.0,88,0.00,,,0.00,VWS V14.00,2013-05-15 08:35:00,
2013-05-15 04:41:00,35.1,32.1,29.97,SSE,148,4.3,10.0,89,0.00,,,0.00,VWS V14.00,2013-05-15 08:41:00,
2013-05-15 04:44:00,35.1,32.1,29.97,SSE,159,5.6,10.0,89,0.00,,,0.00,VWS V14.00,2013-05-15 08:44:00,
2013-05-15 04:47:00,35.0,32.0,29.96,SSE,160,3.5,10.0,89,0.00,,,0.00,VWS V14.00,2013-05-15 08:47:00,
2013-05-15 04:57:00,34.8,31.9,29.96,SSE,148,5.2,10.0,89,0.00,,,0.00,VWS V14.00,2013-05-15 08:57:00,
2013-05-15 05:02:00,34.8,31.9,29.96,SSE,158,6.2,10.0,89,0.00,,,0.00,VWS V14.00,2013-05-15 09:02:00,
2013-05-15 05:07:00,35.3,32.1,29.96,ESE,121,0.0,10.0,88,0.00,,,0.00,VWS V14.00,2013-05-15 09:07:00,
2013-05-15 05:09:00,34.7,31.9,29.96,SSE,160,5.2,10.0,89,0.00,,,0.00,VWS V14.00,2013-05-15 09:09:00,
2013-05-15 05:12:00,34.8,32.0,29.96,SE,141,6.9,10.0,89,0.00,,,0.00,VWS V14.00,2013-05-15 09:12:00,
2013-05-15 05:13:00,35.3,32.2,29.97,ESE,121,0.0,10.0,88,0.00,,,0.00,VWS V14.00,2013-05-15 09:13:00,
2013-05-15 05:15:00,34.8,32.1,29.96,SSE,160,6.3,10.0,90,0.00,,,0.00,VWS V14.00,2013-05-15 09:15:00,
2013-05-15 05:18:00,34.7,32.0,29.95,SSE,156,4.9,10.0,90,0.00,,,0.00,VWS V14.00,2013-05-15 09:18:00,
2013-05-15 05:24:00,34.7,32.0,29.95,SSE,149,5.4,10.0,90,0.00,,,0.00,VWS V14.00,2013-05-15 09:24:00,
2013-05-15 05:27:00,34.7,32.0,29.95,SSE,152,5.3,10.0,90,0.00,,,0.00,VWS V14.00,2013-05-15 09:27:00,
2013-05-15 05:34:00,35.0,32.0,29.97,SSE,149,4.3,10.0,88,0.00,,,0.00,VWS V14.00,2013-05-15 09:34:00,
2013-05-15 05:46:00,35.0,32.1,29.96,SSE,167,5.3,10.0,89,0.00,,,0.00,VWS V14.00,2013-05-15 09:46:00,
2013-05-15 05:55:00,34.9,32.0,29.96,SSE,158,6.5,10.0,89,0.00,,,0.00,VWS V14.00,2013-05-15 09:55:00,
2013-05-15 06:01:00,34.8,32.0,29.96,SSE,156,5.7,10.0,89,0.00,,,0.00,VWS V14.00,2013-05-15 10:01:00,
2013-05-15 06:16:00,34.7,32.0,29.95,SSE,156,4.8,10.0,90,0.00,,,0.00,VWS V14.00,2013-05-15 10:16:00,
2013-05-15 06:25:00,34.8,32.1,29.95,SSE,166,5.5,10.0,90,0.00,,,0.00,VWS V14.00,2013-05-15 10:25:00,
2013-05-15 06:31:00,34.6,32.0,29.95,SSE,158,5.3,10.0,90,0.00,,,0.00,VWS V14.00,2013-05-15 10:31:00,
2013-05-15 06:37:00,34.6,32.1,29.95,SSE,148,5.0,10.0,90,0.00,,,0.00,VWS V14.00,2013-05-15 10:37:00,
2013-05-15 06:43:00,34.7,32.3,29.95,SSE,160,5.4,10.0,91,0.00,,,0.00,VWS V14.00,2013-05-15 10:43:00,
2013-05-15 06:49:00,34.8,32.5,29.95,SSE,162,5.7,10.0,91,0.00,,,0.00,VWS V14.00,2013-05-15 10:49:00,
2013-05-15 06:56:00,35.3,32.9,29.95,SSE,156,3.5,10.0,91,0.00,,,0.00,VWS V14.00,2013-05-15 10:56:00,
2013-05-15 07:02:00,35.7,33.3,29.95,SE,143,3.4,10.0,91,0.00,,,0.00,VWS V14.00,2013-05-15 11:02:00,
2013-05-15 07:08:00,36.4,34.0,29.95,SSE,162,3.4,10.0,91,0.00,,,0.00,VWS V14.00,2013-05-15 11:08:00,
2013-05-15 07:14:00,36.8,34.3,29.95,SE,142,4.4,10.0,91,0.00,,,0.00,VWS V14.00,2013-05-15 11:14:00,
2013-05-15 07:20:00,37.5,34.8,29.95,ESE,120,0.0,10.0,90,0.00,,,0.00,VWS V14.00,2013-05-15 11:20:00,
2013-05-15 07:26:00,38.1,35.4,29.94,ESE,120,0.0,10.0,90,0.00,,,0.00,VWS V14.00,2013-05-15 11:26:00,
2013-05-15 07:32:00,38.2,35.6,29.94,ESE,120,0.0,10.0,90,0.00,,,0.00,VWS V14.00,2013-05-15 11:32:00,
2013-05-15 07:41:00,39.3,36.0,29.94,ESE,122,0.0,10.0,88,0.00,,,0.00,VWS V14.00,2013-05-15 11:41:00,
2013-05-15 07:47:00,40.0,36.3,29.94,ESE,122,0.0,10.0,86,0.00,,,0.00,VWS V14.00,2013-05-15 11:47:00,
2013-05-15 07:54:00,40.5,36.7,29.93,NNE,28,0.0,10.0,86,0.00,,,0.00,VWS V14.00,2013-05-15 11:54:00,
2013-05-15 08:00:00,41.1,36.9,29.94,NNE,28,0.0,10.0,85,0.00,,,0.00,VWS V14.00,2013-05-15 12:00:00,
2013-05-15 08:06:00,41.8,37.0,29.92,SSE,163,0.0,10.0,83,0.00,,,0.00,VWS V14.00,2013-05-15 12:06:00,
2013-05-15 08:12:00,42.3,36.3,29.92,ESE,115,0.0,10.0,79,0.00,,,0.00,VWS V14.00,2013-05-15 12:12:00,
2013-05-15 08:18:00,43.3,37.0,29.92,ESE,115,0.0,10.0,78,0.00,,,0.00,VWS V14.00,2013-05-15 12:18:00,
2013-05-15 08:28:00,44.7,35.3,29.92,NNE,20,0.0,10.0,69,0.00,,,0.00,VWS V14.00,2013-05-15 12:28:00,
2013-05-15 08:34:00,45.4,34.4,29.92,NNE,20,0.0,10.0,65,0.00,,,0.00,VWS V14.00,2013-05-15 12:34:00,
2013-05-15 08:40:00,46.2,33.8,29.91,NNE,20,0.0,10.0,62,0.00,,,0.00,VWS V14.00,2013-05-15 12:40:00,
2013-05-15 08:46:00,47.0,33.2,29.91,NNE,30,0.0,10.0,58,0.00,,,0.00,VWS V14.00,2013-05-15 12:46:00,
2013-05-15 08:55:00,48.1,33.3,29.91,NNE,30,0.0,10.0,56,0.00,,,0.00,VWS V14.00,2013-05-15 12:55:00,
2013-05-15 09:01:00,48.8,33.5,29.90,NNE,30,0.0,10.0,55,0.00,,,0.00,VWS V14.00,2013-05-15 13:01:00,
2013-05-15 09:07:00,49.6,33.2,29.90,NNE,30,0.0,10.0,53,0.00,,,0.00,VWS V14.00,2013-05-15 13:07:00,
2013-05-15 09:14:00,50.2,33.4,29.90,NNE,30,0.0,10.0,52,0.00,,,0.00,VWS V14.00,2013-05-15 13:14:00,
2013-05-15 09:23:00,51.3,32.9,29.89,NNE,30,0.0,10.0,49,0.00,,,0.00,VWS V14.00,2013-05-15 13:23:00,
2013-05-15 09:32:00,52.6,33.2,29.89,WNW,297,0.0,10.0,48,0.00,,,0.00,VWS V14.00,2013-05-15 13:32:00,
2013-05-15 09:38:00,53.0,32.8,29.89,NNE,13,0.0,10.0,46,0.00,,,0.00,VWS V14.00,2013-05-15 13:38:00,
2013-05-15 09:45:00,53.8,33.6,29.89,NNE,13,0.0,10.0,46,0.00,,,0.00,VWS V14.00,2013-05-15 13:45:00,
2013-05-15 09:51:00,54.3,33.0,29.88,NNE,13,0.0,10.0,44,0.00,,,0.00,VWS V14.00,2013-05-15 13:51:00,
2013-05-15 09:57:00,54.8,33.0,29.88,NNW,340,0.0,10.0,43,0.00,,,0.00,VWS V14.00,2013-05-15 13:57:00,
2013-05-15 10:03:00,55.3,32.3,29.87,NNW,335,0.0,10.0,41,0.00,,,0.00,VWS V14.00,2013-05-15 14:03:00,
2013-05-15 10:12:00,56.1,32.7,29.87,North,4,2.9,10.0,41,0.00,,,0.00,VWS V14.00,2013-05-15 14:12:00,
2013-05-15 10:18:00,56.8,32.3,29.87,NNW,339,0.0,10.0,39,0.00,,,0.00,VWS V14.00,2013-05-15 14:18:00,
2013-05-15 10:24:00,57.6,32.2,29.87,East,87,0.0,10.0,38,0.00,,,0.00,VWS V14.00,2013-05-15 14:24:00,
2013-05-15 10:30:00,58.1,31.0,29.87,ENE,75,0.0,10.0,36,0.00,,,0.00,VWS V14.00,2013-05-15 14:30:00,
2013-05-15 10:37:00,59.0,31.5,29.87,NNE,24,2.4,10.0,35,0.00,,,0.00,VWS V14.00,2013-05-15 14:37:00,
2013-05-15 10:43:00,59.8,31.5,29.85,ESE,104,0.0,10.0,34,0.00,,,0.00,VWS V14.00,2013-05-15 14:43:00,
2013-05-15 10:49:00,60.4,30.4,29.85,NE,37,5.7,10.0,32,0.00,,,0.00,VWS V14.00,2013-05-15 14:49:00,
2013-05-15 10:55:00,60.7,28.9,29.85,SE,127,6.2,10.0,30,0.00,,,0.00,VWS V14.00,2013-05-15 14:55:00,
2013-05-15 11:02:00,61.5,30.0,29.85,NNE,17,0.0,10.0,30,0.00,,,0.00,VWS V14.00,2013-05-15 15:02:00,
2013-05-15 11:08:00,62.6,29.8,29.85,North,0,4.4,10.0,29,0.00,,,0.00,VWS V14.00,2013-05-15 15:08:00,
2013-05-15 11:14:00,63.1,27.8,29.84,North,8,3.0,10.0,26,0.00,,,0.00,VWS V14.00,2013-05-15 15:14:00,
2013-05-15 11:20:00,63.6,28.0,29.84,NNE,30,5.7,10.0,26,0.00,,,0.00,VWS V14.00,2013-05-15 15:20:00,
2013-05-15 11:26:00,64.0,28.3,29.83,NNE,25,6.1,10.7,26,0.00,,,0.00,VWS V14.00,2013-05-15 15:26:00,
2013-05-15 11:32:00,64.6,28.2,29.84,NNW,340,7.8,10.7,25,0.00,,,0.00,VWS V14.00,2013-05-15 15:32:00,
2013-05-15 11:38:00,64.9,26.4,29.83,North,7,7.0,10.7,23,0.00,,,0.00,VWS V14.00,2013-05-15 15:38:00,
2013-05-15 11:44:00,64.7,26.9,29.83,North,3,9.8,10.7,24,0.00,,,0.00,VWS V14.00,2013-05-15 15:44:00,
2013-05-15 11:54:00,64.6,27.6,29.82,North,353,4.2,11.1,25,0.00,,,0.00,VWS V14.00,2013-05-15 15:54:00,
2013-05-15 12:07:00,64.7,27.7,29.82,NE,48,2.7,11.1,25,0.00,,,0.00,VWS V14.00,2013-05-15 16:07:00,
2013-05-15 12:13:00,63.9,27.8,29.83,North,6,4.4,11.1,25,0.00,,,0.00,VWS V14.00,2013-05-15 16:13:00,
2013-05-15 12:19:00,63.5,28.6,29.82,NE,38,4.3,11.1,27,0.00,,,0.00,VWS V14.00,2013-05-15 16:19:00,
2013-05-15 12:25:00,62.9,29.4,29.82,NE,38,0.0,11.1,28,0.00,,,0.00,VWS V14.00,2013-05-15 16:25:00,
2013-05-15 12:34:00,62.5,31.0,29.81,ENE,63,0.0,11.1,30,0.00,,,0.00,VWS V14.00,2013-05-15 16:34:00,
2013-05-15 12:47:00,62.4,30.8,29.79,NNE,21,7.5,11.1,30,0.00,,,0.00,VWS V14.00,2013-05-15 16:47:00,
2013-05-15 12:53:00,62.1,31.0,29.77,NE,48,0.0,11.1,31,0.00,,,0.00,VWS V14.00,2013-05-15 16:53:00,
2013-05-15 12:59:00,62.3,32.1,29.77,North,11,6.1,11.1,32,0.00,,,0.00,VWS V14.00,2013-05-15 16:59:00,
2013-05-15 13:06:00,62.3,34.0,29.77,NNE,24,5.0,11.9,34,0.00,,,0.00,VWS V14.00,2013-05-15 17:06:00,
2013-05-15 13:15:00,61.9,37.0,29.76,NE,34,5.6,11.9,39,0.00,,,0.00,VWS V14.00,2013-05-15 17:15:00,
2013-05-15 13:25:00,62.0,38.1,29.76,North,11,4.7,11.9,41,0.00,,,0.00,VWS V14.00,2013-05-15 17:25:00,
2013-05-15 13:31:00,62.3,38.5,29.74,NNE,28,2.9,11.9,41,0.00,,,0.00,VWS V14.00,2013-05-15 17:31:00,
2013-05-15 13:37:00,62.9,38.6,29.72,NNE,17,7.0,11.9,41,0.00,,,0.00,VWS V14.00,2013-05-15 17:37:00,
2013-05-15 13:43:00,64.1,38.5,29.73,North,352,0.0,11.9,39,0.00,,,0.00,VWS V14.00,2013-05-15 17:43:00,
2013-05-15 13:53:00,64.3,37.2,29.73,North,3,0.0,11.9,36,0.00,,,0.00,VWS V14.00,2013-05-15 17:53:00,
2013-05-15 14:02:00,63.4,37.2,29.72,NNE,20,1.9,11.9,38,0.00,,,0.00,VWS V14.00,2013-05-15 18:02:00,
2013-05-15 14:12:00,63.3,38.3,29.71,NE,41,0.0,11.9,40,0.00,,,0.00,VWS V14.00,2013-05-15 18:12:00,
2013-05-15 14:18:00,62.5,36.8,29.71,North,359,0.0,11.9,38,0.00,,,0.00,VWS V14.00,2013-05-15 18:18:00,
2013-05-15 14:27:00,61.4,36.4,29.74,NE,55,0.0,11.9,39,0.00,,,0.00,VWS V14.00,2013-05-15 18:27:00,
2013-05-15 14:34:00,60.8,37.8,29.74,NNE,13,0.0,11.9,42,0.00,,,0.00,VWS V14.00,2013-05-15 18:34:00,
2013-05-15 14:43:00,59.4,41.8,29.72,ESE,108,0.0,11.9,52,0.00,,,0.00,VWS V14.00,2013-05-15 18:43:00,
2013-05-15 14:49:00,58.7,43.4,29.75,ESE,108,0.0,11.9,57,0.00,,,0.00,VWS V14.00,2013-05-15 18:49:00,
2013-05-15 14:55:00,57.8,44.2,29.75,NNE,22,2.3,11.9,60,0.00,,,0.00,VWS V14.00,2013-05-15 18:55:00,
2013-05-15 15:01:00,56.9,44.6,29.73,NNE,22,0.0,11.9,63,0.00,,,0.00,VWS V14.00,2013-05-15 19:01:00,
2013-05-15 15:07:00,56.5,45.7,29.72,NNE,22,0.0,11.9,67,0.00,,,0.00,VWS V14.00,2013-05-15 19:07:00,
2013-05-15 15:13:00,56.1,46.1,29.71,NNE,22,0.0,11.9,69,0.00,,,0.00,VWS V14.00,2013-05-15 19:13:00,
2013-05-15 15:29:00,54.9,45.3,29.73,SSE,153,0.0,11.9,70,0.00,,,0.00,VWS V14.00,2013-05-15 19:29:00,
2013-05-15 15:39:00,54.1,46.0,29.70,ENE,72,6.1,11.9,74,0.00,,,0.00,VWS V14.00,2013-05-15 19:39:00,
2013-05-15 15:45:00,53.5,45.7,29.69,South,169,4.2,11.9,75,0.00,,,0.00,VWS V14.00,2013-05-15 19:45:00,
2013-05-15 15:51:00,52.9,45.7,29.69,SE,141,2.7,12.2,76,0.00,,,0.00,VWS V14.00,2013-05-15 19:51:00,
2013-05-15 15:57:00,52.4,45.8,29.67,East,89,4.7,12.2,78,0.00,,,0.00,VWS V14.00,2013-05-15 19:57:00,
2013-05-15 16:03:00,52.2,46.0,29.66,SE,128,4.1,12.2,79,0.00,,,0.00,VWS V14.00,2013-05-15 20:03:00,
2013-05-15 16:09:00,52.2,46.3,29.66,ESE,122,0.0,12.2,80,0.00,,,0.00,VWS V14.00,2013-05-15 20:09:00,
2013-05-15 16:15:00,52.3,46.8,29.65,SSE,150,0.0,12.2,81,0.00,,,0.00,VWS V14.00,2013-05-15 20:15:00,
2013-05-15 16:21:00,52.3,46.8,29.64,ESE,107,0.0,12.2,81,0.00,,,0.00,VWS V14.00,2013-05-15 20:21:00,
2013-05-15 16:27:00,52.9,47.8,29.62,SSE,148,5.1,12.2,83,0.00,,,0.00,VWS V14.00,2013-05-15 20:27:00,
2013-05-15 16:34:00,53.5,47.8,29.63,SE,143,6.1,12.3,81,0.00,,,0.00,VWS V14.00,2013-05-15 20:34:00,
2013-05-15 16:40:00,54.5,48.7,29.64,East,96,0.0,12.3,81,0.00,,,0.00,VWS V14.00,2013-05-15 20:40:00,
2013-05-15 16:46:00,55.7,49.4,29.64,NE,51,2.7,12.3,79,0.00,,,0.00,VWS V14.00,2013-05-15 20:46:00,
2013-05-15 16:52:00,56.0,48.7,29.64,SE,145,5.7,12.3,76,0.00,,,0.00,VWS V14.00,2013-05-15 20:52:00,
2013-05-15 16:58:00,55.8,47.9,29.66,North,359,5.0,12.3,75,0.00,,,0.00,VWS V14.00,2013-05-15 20:58:00,
2013-05-15 17:07:00,55.4,47.9,29.65,NNE,24,0.0,12.3,76,0.00,,,0.00,VWS V14.00,2013-05-15 21:07:00,
2013-05-15 17:13:00,54.9,47.4,29.66,SSE,163,5.8,12.3,76,0.00,,,0.00,VWS V14.00,2013-05-15 21:13:00,
2013-05-15 17:19:00,54.5,47.2,29.66,SE,142,3.0,12.3,76,0.00,,,0.00,VWS V14.00,2013-05-15 21:19:00,
2013-05-15 17:29:00,54.0,47.1,29.64,SSW,193,3.4,12.3,78,0.00,,,0.00,VWS V14.00,2013-05-15 21:29:00,
2013-05-15 17:35:00,53.8,47.2,29.63,SSE,159,5.8,12.3,78,0.00,,,0.00,VWS V14.00,2013-05-15 21:35:00,
2013-05-15 17:41:00,53.5,47.2,29.63,SE,138,6.3,12.3,79,0.00,,,0.00,VWS V14.00,2013-05-15 21:41:00,
2013-05-15 17:47:00,53.4,47.4,29.63,ENE,73,2.9,12.3,80,0.00,,,0.00,VWS V14.00,2013-05-15 21:47:00,
2013-05-15 17:53:00,53.4,47.8,29.62,East,89,0.0,12.3,81,0.00,,,0.00,VWS V14.00,2013-05-15 21:53:00,
2013-05-15 17:59:00,53.8,48.3,29.62,ESE,111,0.0,12.3,82,0.00,,,0.00,VWS V14.00,2013-05-15 21:59:00,
2013-05-15 18:06:00,54.1,48.4,29.62,SE,124,0.0,12.3,81,0.00,,,0.00,VWS V14.00,2013-05-15 22:06:00,
2013-05-15 18:12:00,54.3,48.3,29.62,ESE,121,0.0,12.3,80,0.00,,,0.00,VWS V14.00,2013-05-15 22:12:00,
2013-05-15 18:18:00,54.4,48.2,29.62,ENE,77,0.0,12.3,80,0.00,,,0.00,VWS V14.00,2013-05-15 22:18:00,
2013-05-15 18:24:00,54.5,48.2,29.61,East,98,0.0,12.3,79,0.00,,,0.00,VWS V14.00,2013-05-15 22:24:00,
2013-05-15 18:30:00,54.7,48.5,29.61,SE,139,7.0,12.3,80,0.00,,,0.00,VWS V14.00,2013-05-15 22:30:00,
2013-05-15 18:36:00,54.9,48.5,29.61,ESE,103,2.8,12.3,79,0.00,,,0.00,VWS V14.00,2013-05-15 22:36:00,
2013-05-15 18:42:00,55.0,48.3,29.61,SSE,156,6.6,12.3,78,0.00,,,0.00,VWS V14.00,2013-05-15 22:42:00,
2013-05-15 18:48:00,55.0,48.4,29.61,NNE,18,3.4,12.3,78,0.00,,,0.00,VWS V14.00,2013-05-15 22:48:00,
2013-05-15 18:54:00,55.0,48.7,29.61,NNE,15,0.0,12.3,79,0.00,,,0.00,VWS V14.00,2013-05-15 22:54:00,
2013-05-15 19:03:00,54.8,48.7,29.60,NNE,15,0.0,12.3,80,0.00,,,0.00,VWS V14.00,2013-05-15 23:03:00,
2013-05-15 19:13:00,54.9,48.9,29.60,SSE,156,0.0,12.3,80,0.00,,,0.00,VWS V14.00,2013-05-15 23:13:00,
2013-05-15 19:25:00,54.8,49.1,29.60,SSE,150,0.0,12.3,81,0.00,,,0.00,VWS V14.00,2013-05-15 23:25:00,
2013-05-15 19:32:00,54.5,49.1,29.60,SW,235,0.0,12.3,82,0.00,,,0.00,VWS V14.00,2013-05-15 23:32:00,
2013-05-15 19:38:00,54.3,49.0,29.60,SW,235,0.0,12.3,82,0.00,,,0.00,VWS V14.00,2013-05-15 23:38:00,
2013-05-15 19:44:00,54.1,48.9,29.60,SW,235,0.0,12.3,82,0.00,,,0.00,VWS V14.00,2013-05-15 23:44:00,
2013-05-15 19:50:00,53.9,48.8,29.60,SW,235,0.0,12.3,83,0.00,,,0.00,VWS V14.00,2013-05-15 23:50:00,
2013-05-15 19:56:00,53.8,48.9,29.60,SW,235,0.0,12.3,83,0.00,,,0.00,VWS V14.00,2013-05-15 23:56:00,
2013-05-15 20:02:00,53.8,49.1,29.60,SW,235,0.0,12.3,84,0.00,,,0.00,VWS V14.00,2013-05-16 00:02:00,
2013-05-15 20:08:00,53.5,49.0,29.60,SW,235,0.0,12.3,84,0.00,,,0.00,VWS V14.00,2013-05-16 00:08:00,
2013-05-15 20:14:00,53.5,49.1,29.60,SW,235,0.0,12.3,85,0.00,,,0.00,VWS V14.00,2013-05-16 00:14:00,
2013-05-15 20:20:00,53.3,49.0,29.60,SW,235,0.0,12.3,85,0.00,,,0.00,VWS V14.00,2013-05-16 00:20:00,
2013-05-15 20:26:00,53.2,49.0,29.61,SW,235,0.0,12.3,86,0.00,,,0.00,VWS V14.00,2013-05-16 00:26:00,
2013-05-15 20:32:00,53.1,49.0,29.61,SW,235,0.0,12.3,86,0.00,,,0.00,VWS V14.00,2013-05-16 00:32:00,
2013-05-15 20:39:00,52.8,48.9,29.61,SW,235,0.0,12.3,87,0.00,,,0.00,VWS V14.00,2013-05-16 00:39:00,
2013-05-15 20:45:00,52.9,49.1,29.61,SW,235,0.0,12.3,87,0.00,,,0.00,VWS V14.00,2013-05-16 00:45:00,
2013-05-15 20:51:00,52.7,49.0,29.61,SW,235,0.0,12.3,87,0.00,,,0.00,VWS V14.00,2013-05-16 00:51:00,
2013-05-15 20:57:00,52.6,49.0,29.62,SW,235,0.0,12.3,88,0.00,,,0.00,VWS V14.00,2013-05-16 00:57:00,
2013-05-15 21:07:00,52.4,49.0,29.62,SW,235,0.0,12.3,88,0.00,,,0.00,VWS V14.00,2013-05-16 01:07:00,
2013-05-15 21:13:00,52.3,49.0,29.63,SW,235,0.0,12.3,88,0.00,,,0.00,VWS V14.00,2013-05-16 01:13:00,
2013-05-15 21:19:00,52.1,48.9,29.63,SW,235,0.0,12.3,89,0.00,,,0.00,VWS V14.00,2013-05-16 01:19:00,
2013-05-15 21:25:00,51.9,48.9,29.62,SW,235,0.0,12.3,89,0.00,,,0.00,VWS V14.00,2013-05-16 01:25:00,
2013-05-15 21:31:00,52.0,49.2,29.62,SW,235,0.0,12.3,90,0.00,,,0.00,VWS V14.00,2013-05-16 01:31:00,
2013-05-15 21:37:00,51.9,49.1,29.62,SW,235,0.0,12.3,90,0.00,,,0.00,VWS V14.00,2013-05-16 01:37:00,
2013-05-15 21:44:00,51.9,49.1,29.62,SW,235,0.0,12.3,90,0.00,,,0.00,VWS V14.00,2013-05-16 01:44:00,
2013-05-15 21:50:00,52.0,49.4,29.63,SW,235,0.0,12.3,91,0.00,,,0.00,VWS V14.00,2013-05-16 01:50:00,
2013-05-15 21:56:00,52.0,49.5,29.63,SW,235,0.0,12.3,91,0.00,,,0.00,VWS V14.00,2013-05-16 01:56:00,
2013-05-15 22:05:00,52.0,49.5,29.62,SW,235,0.0,12.3,91,0.00,,,0.00,VWS V14.00,2013-05-16 02:05:00,
2013-05-15 22:11:00,52.0,49.5,29.62,ESE,107,0.0,12.3,91,0.00,,,0.00,VWS V14.00,2013-05-16 02:11:00,
2013-05-15 22:17:00,51.7,49.3,29.62,ESE,110,1.6,12.3,91,0.00,,,0.00,VWS V14.00,2013-05-16 02:17:00,
2013-05-15 22:24:00,51.7,49.3,29.62,ESE,110,0.0,12.3,92,0.00,,,0.00,VWS V14.00,2013-05-16 02:24:00,
2013-05-15 22:30:00,51.7,49.4,29.61,ESE,110,0.0,12.3,92,0.00,,,0.00,VWS V14.00,2013-05-16 02:30:00,
2013-05-15 22:46:00,51.7,49.7,29.62,SSE,152,0.0,12.3,93,0.00,,,0.00,VWS V14.00,2013-05-16 02:46:00,
2013-05-15 22:50:00,38.5,31.8,30.00,SSE,152,4.8,10.4,76,0.00,,,0.00,VWS V14.00,2013-05-16 02:50:00,
2013-05-15 22:59:00,52.0,50.2,29.61,SSE,152,0.0,12.3,94,0.00,,,0.00,VWS V14.00,2013-05-16 02:59:00,
2013-05-15 23:00:00,38.4,32.0,29.99,SSE,166,6.0,7.5,78,0.00,,,0.00,VWS V14.00,2013-05-16 03:00:00,
2013-05-15 23:08:00,52.3,50.4,29.62,SSE,152,0.0,12.3,93,0.00,,,0.00,VWS V14.00,2013-05-16 03:08:00,
2013-05-15 23:10:00,38.3,32.0,29.99,SSE,149,5.7,7.7,78,0.00,,,0.00,VWS V14.00,2013-05-16 03:10:00,
2013-05-15 23:14:00,52.6,50.6,29.62,SSE,148,0.0,12.3,93,0.00,,,0.00,VWS V14.00,2013-05-16 03:14:00,
2013-05-15 23:20:00,52.4,50.3,29.62,SSE,148,0.0,12.3,93,0.00,,,0.00,VWS V14.00,2013-05-16 03:20:00,
2013-05-15 23:27:00,52.2,50.2,29.62,SSE,148,0.0,12.3,93,0.00,,,0.00,VWS V14.00,2013-05-16 03:27:00,
2013-05-15 23:30:00,37.4,31.3,29.99,South,170,5.5,8.5,78,0.00,,,0.00,VWS V14.00,2013-05-16 03:30:00,
2013-05-15 23:36:00,52.4,50.4,29.62,SSE,148,0.0,12.3,93,0.00,,,0.00,VWS V14.00,2013-05-16 03:36:00,
2013-05-15 23:40:00,37.4,31.6,29.99,South,172,7.1,9.6,79,0.00,,,0.00,VWS V14.00,2013-05-16 03:40:00,
2013-05-15 23:42:00,52.2,50.2,29.63,SSE,148,0.0,12.3,93,0.00,,,0.00,VWS V14.00,2013-05-16 03:42:00,
2013-05-15 23:50:00,37.4,31.8,29.99,SSE,153,7.0,8.8,80,0.00,,,0.00,VWS V14.00,2013-05-16 03:50:00,
2013-05-15 23:52:00,51.8,49.8,29.62,SSE,148,0.0,0.0,93,0.00,,,0.00,VWS V14.00,2013-05-16 03:52:00,
2013-05-15 23:58:00,51.8,49.8,29.62,SSE,148,0.0,0.0,93,0.00,,,0.00,VWS V14.00,2013-05-16 03:58:00,